sensor_id;sensor_type;location;lat;lon;timestamp;P1;durP1;ratioP1;P2;durP2;ratioP2
47930;SDS011;33697;51.520;9.950;2023-03-23T00:00:22;1.33;;;0.55;;
47930;SDS011;33697;51.520;9.950;2023-03-23T00:02:47;2.25;;;0.20;;
47930;SDS011;33697;51.520;9.950;2023-03-23T00:05:15;3.10;;;0.70;;
47930;SDS011;33697;51.520;9.950;2023-03-23T00:07:44;3.38;;;0.43;;
47930;SDS011;33697;51.520;9.950;2023-03-23T00:10:10;2.40;;;0.47;;
47930;SDS011;33697;51.520;9.950;2023-03-23T00:12:35;1.65;;;0.57;;
47930;SDS011;33697;51.520;9.950;2023-03-23T00:17:32;5.55;;;0.77;;
47930;SDS011;33697;51.520;9.950;2023-03-23T00:20:00;3.70;;;0.85;;
47930;SDS011;33697;51.520;9.950;2023-03-23T00:22:27;3.38;;;0.63;;
47930;SDS011;33697;51.520;9.950;2023-03-23T00:24:52;3.35;;;0.50;;
47930;SDS011;33697;51.520;9.950;2023-03-23T00:27:18;3.22;;;0.30;;
47930;SDS011;33697;51.520;9.950;2023-03-23T00:29:46;1.05;;;0.50;;
47930;SDS011;33697;51.520;9.950;2023-03-23T00:32:17;1.42;;;0.60;;
47930;SDS011;33697;51.520;9.950;2023-03-23T00:34:43;2.88;;;0.70;;
47930;SDS011;33697;51.520;9.950;2023-03-23T00:37:11;1.73;;;0.70;;
47930;SDS011;33697;51.520;9.950;2023-03-23T00:39:37;1.67;;;0.30;;
47930;SDS011;33697;51.520;9.950;2023-03-23T00:42:03;3.92;;;0.65;;
47930;SDS011;33697;51.520;9.950;2023-03-23T00:44:28;4.82;;;0.60;;
47930;SDS011;33697;51.520;9.950;2023-03-23T00:46:55;1.45;;;0.50;;
47930;SDS011;33697;51.520;9.950;2023-03-23T00:49:22;5.63;;;0.57;;
47930;SDS011;33697;51.520;9.950;2023-03-23T00:51:53;1.88;;;0.90;;
47930;SDS011;33697;51.520;9.950;2023-03-23T00:54:18;5.03;;;0.75;;
47930;SDS011;33697;51.520;9.950;2023-03-23T00:56:44;1.65;;;0.88;;
47930;SDS011;33697;51.520;9.950;2023-03-23T00:59:10;2.35;;;0.70;;
47930;SDS011;33697;51.520;9.950;2023-03-23T01:01:35;1.58;;;0.70;;
47930;SDS011;33697;51.520;9.950;2023-03-23T01:04:01;3.95;;;0.80;;
47930;SDS011;33697;51.520;9.950;2023-03-23T01:06:29;1.67;;;0.80;;
47930;SDS011;33697;51.520;9.950;2023-03-23T01:08:56;2.22;;;0.98;;
47930;SDS011;33697;51.520;9.950;2023-03-23T01:11:21;1.25;;;0.38;;
47930;SDS011;33697;51.520;9.950;2023-03-23T01:13:47;3.90;;;0.70;;
47930;SDS011;33697;51.520;9.950;2023-03-23T01:16:12;7.63;;;1.65;;
47930;SDS011;33697;51.520;9.950;2023-03-23T01:18:38;3.25;;;1.17;;
47930;SDS011;33697;51.520;9.950;2023-03-23T01:21:04;1.88;;;0.98;;
47930;SDS011;33697;51.520;9.950;2023-03-23T01:23:33;3.08;;;0.85;;
47930;SDS011;33697;51.520;9.950;2023-03-23T01:28:30;2.15;;;0.82;;
47930;SDS011;33697;51.520;9.950;2023-03-23T01:31:02;1.70;;;0.85;;
47930;SDS011;33697;51.520;9.950;2023-03-23T01:33:28;1.88;;;0.90;;
47930;SDS011;33697;51.520;9.950;2023-03-23T01:35:53;3.10;;;1.00;;
47930;SDS011;33697;51.520;9.950;2023-03-23T01:38:19;1.85;;;0.93;;
47930;SDS011;33697;51.520;9.950;2023-03-23T01:40:44;2.60;;;0.75;;
47930;SDS011;33697;51.520;9.950;2023-03-23T01:43:13;2.78;;;0.88;;
47930;SDS011;33697;51.520;9.950;2023-03-23T01:45:39;2.58;;;0.90;;
47930;SDS011;33697;51.520;9.950;2023-03-23T01:50:32;1.95;;;0.80;;
47930;SDS011;33697;51.520;9.950;2023-03-23T01:53:00;3.60;;;0.93;;
47930;SDS011;33697;51.520;9.950;2023-03-23T01:55:27;3.47;;;0.75;;
47930;SDS011;33697;51.520;9.950;2023-03-23T01:57:53;3.28;;;1.08;;
47930;SDS011;33697;51.520;9.950;2023-03-23T02:00:19;3.10;;;1.02;;
47930;SDS011;33697;51.520;9.950;2023-03-23T02:02:47;3.40;;;0.82;;
47930;SDS011;33697;51.520;9.950;2023-03-23T02:05:14;2.35;;;0.73;;
47930;SDS011;33697;51.520;9.950;2023-03-23T02:07:39;1.35;;;0.65;;
47930;SDS011;33697;51.520;9.950;2023-03-23T02:10:05;1.60;;;0.43;;
47930;SDS011;33697;51.520;9.950;2023-03-23T02:12:30;2.60;;;0.47;;
47930;SDS011;33697;51.520;9.950;2023-03-23T02:15:02;2.88;;;0.65;;
47930;SDS011;33697;51.520;9.950;2023-03-23T02:20:06;2.28;;;0.80;;
47930;SDS011;33697;51.520;9.950;2023-03-23T02:30:26;2.70;;;0.88;;
47930;SDS011;33697;51.520;9.950;2023-03-23T02:35:28;1.60;;;0.57;;
47930;SDS011;33697;51.520;9.950;2023-03-23T02:38:02;1.67;;;0.75;;
47930;SDS011;33697;51.520;9.950;2023-03-23T02:40:43;4.30;;;0.60;;
47930;SDS011;33697;51.520;9.950;2023-03-23T02:43:10;4.40;;;0.65;;
47930;SDS011;33697;51.520;9.950;2023-03-23T02:45:37;2.80;;;0.40;;
47930;SDS011;33697;51.520;9.950;2023-03-23T02:48:03;2.38;;;0.95;;
47930;SDS011;33697;51.520;9.950;2023-03-23T02:50:30;2.80;;;0.50;;
47930;SDS011;33697;51.520;9.950;2023-03-23T02:52:56;1.65;;;0.50;;
47930;SDS011;33697;51.520;9.950;2023-03-23T02:55:23;3.83;;;0.70;;
47930;SDS011;33697;51.520;9.950;2023-03-23T02:57:50;4.15;;;0.73;;
47930;SDS011;33697;51.520;9.950;2023-03-23T03:00:16;3.22;;;0.73;;
47930;SDS011;33697;51.520;9.950;2023-03-23T03:02:44;2.33;;;0.85;;
47930;SDS011;33697;51.520;9.950;2023-03-23T03:05:16;1.30;;;0.88;;
47930;SDS011;33697;51.520;9.950;2023-03-23T03:07:47;5.22;;;0.80;;
47930;SDS011;33697;51.520;9.950;2023-03-23T03:10:29;4.05;;;0.90;;
47930;SDS011;33697;51.520;9.950;2023-03-23T03:15:44;1.20;;;0.80;;
47930;SDS011;33697;51.520;9.950;2023-03-23T03:18:18;3.30;;;1.20;;
47930;SDS011;33697;51.520;9.950;2023-03-23T03:20:47;3.55;;;0.68;;
47930;SDS011;33697;51.520;9.950;2023-03-23T03:23:14;4.50;;;1.13;;
47930;SDS011;33697;51.520;9.950;2023-03-23T03:25:41;1.00;;;0.47;;
47930;SDS011;33697;51.520;9.950;2023-03-23T03:28:13;3.22;;;1.13;;
47930;SDS011;33697;51.520;9.950;2023-03-23T03:30:39;2.38;;;1.15;;
47930;SDS011;33697;51.520;9.950;2023-03-23T03:33:05;3.10;;;0.80;;
47930;SDS011;33697;51.520;9.950;2023-03-23T03:35:31;3.63;;;1.45;;
47930;SDS011;33697;51.520;9.950;2023-03-23T03:37:56;2.13;;;0.80;;
47930;SDS011;33697;51.520;9.950;2023-03-23T03:40:23;3.63;;;2.05;;
47930;SDS011;33697;51.520;9.950;2023-03-23T03:42:49;1.90;;;0.63;;
47930;SDS011;33697;51.520;9.950;2023-03-23T03:45:16;1.10;;;0.80;;
47930;SDS011;33697;51.520;9.950;2023-03-23T03:47:41;1.92;;;0.75;;
47930;SDS011;33697;51.520;9.950;2023-03-23T03:50:07;1.30;;;0.68;;
47930;SDS011;33697;51.520;9.950;2023-03-23T03:52:33;2.47;;;0.68;;
47930;SDS011;33697;51.520;9.950;2023-03-23T03:54:59;3.47;;;1.02;;
47930;SDS011;33697;51.520;9.950;2023-03-23T03:57:24;1.52;;;0.88;;
47930;SDS011;33697;51.520;9.950;2023-03-23T03:59:50;5.15;;;0.73;;
47930;SDS011;33697;51.520;9.950;2023-03-23T04:02:18;2.13;;;0.95;;
47930;SDS011;33697;51.520;9.950;2023-03-23T04:04:48;5.43;;;1.17;;
47930;SDS011;33697;51.520;9.950;2023-03-23T04:07:14;1.52;;;0.90;;
47930;SDS011;33697;51.520;9.950;2023-03-23T04:09:41;5.45;;;1.30;;
47930;SDS011;33697;51.520;9.950;2023-03-23T04:14:36;2.85;;;1.40;;
47930;SDS011;33697;51.520;9.950;2023-03-23T04:17:01;3.28;;;0.98;;
47930;SDS011;33697;51.520;9.950;2023-03-23T04:19:27;1.73;;;0.88;;
47930;SDS011;33697;51.520;9.950;2023-03-23T04:21:53;1.35;;;0.70;;
47930;SDS011;33697;51.520;9.950;2023-03-23T04:24:20;2.13;;;1.10;;
47930;SDS011;33697;51.520;9.950;2023-03-23T04:26:46;3.20;;;1.35;;
47930;SDS011;33697;51.520;9.950;2023-03-23T04:29:12;2.78;;;1.05;;
47930;SDS011;33697;51.520;9.950;2023-03-23T04:31:38;2.15;;;1.25;;
47930;SDS011;33697;51.520;9.950;2023-03-23T04:34:04;3.35;;;1.15;;
47930;SDS011;33697;51.520;9.950;2023-03-23T04:36:29;1.77;;;1.02;;
47930;SDS011;33697;51.520;9.950;2023-03-23T04:38:55;3.90;;;1.90;;
47930;SDS011;33697;51.520;9.950;2023-03-23T04:41:21;4.80;;;1.10;;
47930;SDS011;33697;51.520;9.950;2023-03-23T04:43:47;3.47;;;1.33;;
47930;SDS011;33697;51.520;9.950;2023-03-23T04:46:17;1.30;;;0.82;;
47930;SDS011;33697;51.520;9.950;2023-03-23T04:48:44;4.43;;;1.20;;
47930;SDS011;33697;51.520;9.950;2023-03-23T04:51:09;4.35;;;1.10;;
47930;SDS011;33697;51.520;9.950;2023-03-23T04:53:37;2.08;;;1.13;;
47930;SDS011;33697;51.520;9.950;2023-03-23T04:56:09;3.83;;;1.20;;
47930;SDS011;33697;51.520;9.950;2023-03-23T04:58:34;2.40;;;1.35;;
47930;SDS011;33697;51.520;9.950;2023-03-23T05:01:00;2.55;;;1.13;;
47930;SDS011;33697;51.520;9.950;2023-03-23T05:03:25;1.85;;;1.50;;
47930;SDS011;33697;51.520;9.950;2023-03-23T05:05:52;4.15;;;1.30;;
47930;SDS011;33697;51.520;9.950;2023-03-23T05:08:22;1.70;;;1.10;;
47930;SDS011;33697;51.520;9.950;2023-03-23T05:10:55;3.70;;;1.47;;
47930;SDS011;33697;51.520;9.950;2023-03-23T05:13:20;3.13;;;1.48;;
47930;SDS011;33697;51.520;9.950;2023-03-23T05:15:46;4.20;;;1.10;;
47930;SDS011;33697;51.520;9.950;2023-03-23T05:18:14;4.25;;;1.20;;
47930;SDS011;33697;51.520;9.950;2023-03-23T05:20:40;3.55;;;1.65;;
47930;SDS011;33697;51.520;9.950;2023-03-23T05:23:07;1.65;;;1.40;;
47930;SDS011;33697;51.520;9.950;2023-03-23T05:25:32;2.60;;;1.55;;
47930;SDS011;33697;51.520;9.950;2023-03-23T05:28:02;4.03;;;1.38;;
47930;SDS011;33697;51.520;9.950;2023-03-23T05:30:27;3.45;;;1.77;;
47930;SDS011;33697;51.520;9.950;2023-03-23T05:32:53;3.60;;;1.33;;
47930;SDS011;33697;51.520;9.950;2023-03-23T05:37:58;1.63;;;1.00;;
47930;SDS011;33697;51.520;9.950;2023-03-23T05:40:24;4.32;;;1.40;;
47930;SDS011;33697;51.520;9.950;2023-03-23T05:42:51;2.38;;;1.50;;
47930;SDS011;33697;51.520;9.950;2023-03-23T05:45:16;2.88;;;1.20;;
47930;SDS011;33697;51.520;9.950;2023-03-23T05:47:45;2.60;;;1.08;;
47930;SDS011;33697;51.520;9.950;2023-03-23T05:50:12;2.75;;;2.03;;
47930;SDS011;33697;51.520;9.950;2023-03-23T05:52:37;1.70;;;1.42;;
47930;SDS011;33697;51.520;9.950;2023-03-23T05:55:03;5.63;;;1.35;;
47930;SDS011;33697;51.520;9.950;2023-03-23T05:57:29;1.75;;;1.27;;
47930;SDS011;33697;51.520;9.950;2023-03-23T05:59:55;3.03;;;1.27;;
47930;SDS011;33697;51.520;9.950;2023-03-23T06:02:22;2.92;;;1.50;;
47930;SDS011;33697;51.520;9.950;2023-03-23T06:04:49;1.77;;;1.05;;
47930;SDS011;33697;51.520;9.950;2023-03-23T06:07:14;2.95;;;1.27;;
47930;SDS011;33697;51.520;9.950;2023-03-23T06:09:40;1.90;;;1.15;;
47930;SDS011;33697;51.520;9.950;2023-03-23T06:12:06;1.67;;;1.38;;
47930;SDS011;33697;51.520;9.950;2023-03-23T06:14:36;4.20;;;1.30;;
47930;SDS011;33697;51.520;9.950;2023-03-23T06:20:16;5.03;;;1.17;;
47930;SDS011;33697;51.520;9.950;2023-03-23T06:22:46;2.58;;;1.50;;
47930;SDS011;33697;51.520;9.950;2023-03-23T06:25:28;7.05;;;2.40;;
47930;SDS011;33697;51.520;9.950;2023-03-23T06:28:00;2.65;;;1.05;;
47930;SDS011;33697;51.520;9.950;2023-03-23T06:30:41;1.48;;;1.25;;
47930;SDS011;33697;51.520;9.950;2023-03-23T06:33:09;1.70;;;1.08;;
47930;SDS011;33697;51.520;9.950;2023-03-23T06:35:37;4.10;;;1.08;;
47930;SDS011;33697;51.520;9.950;2023-03-23T06:40:53;1.55;;;1.00;;
47930;SDS011;33697;51.520;9.950;2023-03-23T06:43:24;2.47;;;1.92;;
47930;SDS011;33697;51.520;9.950;2023-03-23T06:45:50;2.60;;;1.13;;
47930;SDS011;33697;51.520;9.950;2023-03-23T06:48:16;2.08;;;1.05;;
47930;SDS011;33697;51.520;9.950;2023-03-23T06:50:42;3.22;;;0.90;;
47930;SDS011;33697;51.520;9.950;2023-03-23T06:53:08;1.65;;;0.73;;
47930;SDS011;33697;51.520;9.950;2023-03-23T06:55:36;0.98;;;0.55;;
47930;SDS011;33697;51.520;9.950;2023-03-23T06:58:03;1.15;;;0.40;;
47930;SDS011;33697;51.520;9.950;2023-03-23T07:00:28;0.63;;;0.43;;
47930;SDS011;33697;51.520;9.950;2023-03-23T07:02:57;2.75;;;1.17;;
47930;SDS011;33697;51.520;9.950;2023-03-23T07:05:23;2.30;;;1.95;;
47930;SDS011;33697;51.520;9.950;2023-03-23T07:07:48;2.45;;;0.50;;
47930;SDS011;33697;51.520;9.950;2023-03-23T07:10:13;1.55;;;0.60;;
47930;SDS011;33697;51.520;9.950;2023-03-23T07:12:39;2.65;;;0.90;;
47930;SDS011;33697;51.520;9.950;2023-03-23T07:15:07;1.58;;;0.57;;
47930;SDS011;33697;51.520;9.950;2023-03-23T07:17:35;2.85;;;0.68;;
47930;SDS011;33697;51.520;9.950;2023-03-23T07:20:00;2.03;;;0.57;;
47930;SDS011;33697;51.520;9.950;2023-03-23T07:22:26;1.95;;;0.40;;
47930;SDS011;33697;51.520;9.950;2023-03-23T07:24:52;3.72;;;0.35;;
47930;SDS011;33697;51.520;9.950;2023-03-23T07:27:17;1.45;;;0.55;;
47930;SDS011;33697;51.520;9.950;2023-03-23T07:38:42;0.55;;;0.40;;
47930;SDS011;33697;51.520;9.950;2023-03-23T07:41:11;1.92;;;0.60;;
47930;SDS011;33697;51.520;9.950;2023-03-23T07:43:37;0.85;;;0.40;;
47930;SDS011;33697;51.520;9.950;2023-03-23T07:46:09;1.58;;;0.80;;
47930;SDS011;33697;51.520;9.950;2023-03-23T07:48:34;1.92;;;0.60;;
47930;SDS011;33697;51.520;9.950;2023-03-23T07:51:01;1.38;;;0.57;;
47930;SDS011;33697;51.520;9.950;2023-03-23T07:53:27;1.23;;;0.50;;
47930;SDS011;33697;51.520;9.950;2023-03-23T07:55:52;1.80;;;0.40;;
47930;SDS011;33697;51.520;9.950;2023-03-23T07:58:17;2.28;;;0.95;;
47930;SDS011;33697;51.520;9.950;2023-03-23T08:00:47;1.73;;;0.55;;
47930;SDS011;33697;51.520;9.950;2023-03-23T08:03:14;1.23;;;0.50;;
47930;SDS011;33697;51.520;9.950;2023-03-23T08:06:03;1.80;;;1.27;;
47930;SDS011;33697;51.520;9.950;2023-03-23T08:08:50;1.95;;;0.50;;
47930;SDS011;33697;51.520;9.950;2023-03-23T08:11:16;3.13;;;2.58;;
47930;SDS011;33697;51.520;9.950;2023-03-23T08:13:42;4.10;;;0.38;;
47930;SDS011;33697;51.520;9.950;2023-03-23T08:16:08;2.08;;;0.32;;
47930;SDS011;33697;51.520;9.950;2023-03-23T08:18:37;2.45;;;0.43;;
47930;SDS011;33697;51.520;9.950;2023-03-23T08:21:03;2.08;;;0.32;;
47930;SDS011;33697;51.520;9.950;2023-03-23T08:23:30;4.15;;;0.40;;
47930;SDS011;33697;51.520;9.950;2023-03-23T08:26:04;1.15;;;0.43;;
47930;SDS011;33697;51.520;9.950;2023-03-23T08:28:55;3.40;;;0.38;;
47930;SDS011;33697;51.520;9.950;2023-03-23T08:31:20;2.05;;;0.70;;
47930;SDS011;33697;51.520;9.950;2023-03-23T08:34:05;4.75;;;1.52;;
47930;SDS011;33697;51.520;9.950;2023-03-23T08:37:04;3.50;;;0.70;;
47930;SDS011;33697;51.520;9.950;2023-03-23T08:39:34;4.78;;;0.75;;
47930;SDS011;33697;51.520;9.950;2023-03-23T08:42:07;2.00;;;0.77;;
47930;SDS011;33697;51.520;9.950;2023-03-23T08:47:40;4.45;;;1.08;;
47930;SDS011;33697;51.520;9.950;2023-03-23T09:22:39;1.67;;;0.60;;
47930;SDS011;33697;51.520;9.950;2023-03-23T09:25:05;1.30;;;0.30;;
47930;SDS011;33697;51.520;9.950;2023-03-23T09:27:31;1.85;;;0.52;;
47930;SDS011;33697;51.520;9.950;2023-03-23T09:29:57;2.97;;;0.30;;
47930;SDS011;33697;51.520;9.950;2023-03-23T09:32:23;4.65;;;0.85;;
47930;SDS011;33697;51.520;9.950;2023-03-23T09:34:52;1.58;;;0.57;;
47930;SDS011;33697;51.520;9.950;2023-03-23T09:37:20;2.22;;;0.70;;
47930;SDS011;33697;51.520;9.950;2023-03-23T09:39:46;1.13;;;0.57;;
47930;SDS011;33697;51.520;9.950;2023-03-23T09:50:08;2.97;;;0.90;;
47930;SDS011;33697;51.520;9.950;2023-03-23T09:55:02;2.83;;;0.60;;
47930;SDS011;33697;51.520;9.950;2023-03-23T10:00:19;2.33;;;0.35;;
47930;SDS011;33697;51.520;9.950;2023-03-23T10:02:49;1.00;;;0.47;;
47930;SDS011;33697;51.520;9.950;2023-03-23T10:05:51;1.65;;;0.63;;
47930;SDS011;33697;51.520;9.950;2023-03-23T10:08:11;1.58;;;0.52;;
47930;SDS011;33697;51.520;9.950;2023-03-23T10:13:32;1.42;;;0.50;;
47930;SDS011;33697;51.520;9.950;2023-03-23T10:15:59;1.45;;;0.95;;
47930;SDS011;33697;51.520;9.950;2023-03-23T10:18:33;2.40;;;1.17;;
47930;SDS011;33697;51.520;9.950;2023-03-23T10:21:00;1.80;;;0.40;;
47930;SDS011;33697;51.520;9.950;2023-03-23T10:23:44;3.75;;;0.73;;
47930;SDS011;33697;51.520;9.950;2023-03-23T10:28:48;3.40;;;0.90;;
47930;SDS011;33697;51.520;9.950;2023-03-23T10:31:27;2.78;;;0.68;;
47930;SDS011;33697;51.520;9.950;2023-03-23T10:33:54;4.32;;;0.60;;
47930;SDS011;33697;51.520;9.950;2023-03-23T10:41:49;3.83;;;0.60;;
47930;SDS011;33697;51.520;9.950;2023-03-23T10:44:19;1.63;;;0.60;;
47930;SDS011;33697;51.520;9.950;2023-03-23T10:47:07;1.25;;;0.70;;
47930;SDS011;33697;51.520;9.950;2023-03-23T10:49:38;1.00;;;0.32;;
47930;SDS011;33697;51.520;9.950;2023-03-23T10:54:37;4.53;;;0.45;;
47930;SDS011;33697;51.520;9.950;2023-03-23T10:57:13;3.70;;;0.73;;
47930;SDS011;33697;51.520;9.950;2023-03-23T10:59:57;2.83;;;0.28;;
47930;SDS011;33697;51.520;9.950;2023-03-23T11:05:40;3.47;;;0.43;;
47930;SDS011;33697;51.520;9.950;2023-03-23T11:08:12;3.20;;;0.30;;
47930;SDS011;33697;51.520;9.950;2023-03-23T11:10:47;0.98;;;0.35;;
47930;SDS011;33697;51.520;9.950;2023-03-23T11:13:14;2.42;;;0.63;;
47930;SDS011;33697;51.520;9.950;2023-03-23T11:15:41;2.53;;;0.40;;
47930;SDS011;33697;51.520;9.950;2023-03-23T11:18:09;3.83;;;0.70;;
47930;SDS011;33697;51.520;9.950;2023-03-23T11:20:43;2.35;;;0.40;;
47930;SDS011;33697;51.520;9.950;2023-03-23T11:23:10;1.92;;;0.40;;
47930;SDS011;33697;51.520;9.950;2023-03-23T11:25:49;3.33;;;0.40;;
47930;SDS011;33697;51.520;9.950;2023-03-23T11:28:15;1.27;;;0.38;;
47930;SDS011;33697;51.520;9.950;2023-03-23T11:30:40;3.58;;;0.85;;
47930;SDS011;33697;51.520;9.950;2023-03-23T11:33:07;1.58;;;0.20;;
47930;SDS011;33697;51.520;9.950;2023-03-23T11:35:33;3.20;;;0.47;;
47930;SDS011;33697;51.520;9.950;2023-03-23T11:38:01;1.58;;;0.43;;
47930;SDS011;33697;51.520;9.950;2023-03-23T11:40:43;2.35;;;0.38;;
47930;SDS011;33697;51.520;9.950;2023-03-23T11:43:13;3.55;;;0.60;;
47930;SDS011;33697;51.520;9.950;2023-03-23T17:33:02;1.67;;;0.20;;
47930;SDS011;33697;51.520;9.950;2023-03-23T17:35:34;2.55;;;0.40;;
47930;SDS011;33697;51.520;9.950;2023-03-23T17:38:11;6.32;;;0.52;;
47930;SDS011;33697;51.520;9.950;2023-03-23T17:40:37;0.77;;;0.47;;
47930;SDS011;33697;51.520;9.950;2023-03-23T17:43:04;1.25;;;0.30;;
47930;SDS011;33697;51.520;9.950;2023-03-23T17:45:33;2.45;;;0.40;;
47930;SDS011;33697;51.520;9.950;2023-03-23T17:48:12;1.05;;;0.30;;
47930;SDS011;33697;51.520;9.950;2023-03-23T17:50:39;3.00;;;0.30;;
47930;SDS011;33697;51.520;9.950;2023-03-23T17:53:05;1.27;;;0.30;;
47930;SDS011;33697;51.520;9.950;2023-03-23T17:55:32;1.85;;;0.55;;
47930;SDS011;33697;51.520;9.950;2023-03-23T17:57:58;3.40;;;0.40;;
47930;SDS011;33697;51.520;9.950;2023-03-23T18:00:25;2.05;;;0.30;;
47930;SDS011;33697;51.520;9.950;2023-03-23T18:02:51;2.60;;;0.30;;
47930;SDS011;33697;51.520;9.950;2023-03-23T18:05:18;0.73;;;0.30;;
47930;SDS011;33697;51.520;9.950;2023-03-23T18:07:46;1.17;;;0.32;;
47930;SDS011;33697;51.520;9.950;2023-03-23T18:10:13;1.23;;;0.30;;
47930;SDS011;33697;51.520;9.950;2023-03-23T18:12:39;1.20;;;0.50;;
47930;SDS011;33697;51.520;9.950;2023-03-23T18:15:07;0.93;;;0.25;;
47930;SDS011;33697;51.520;9.950;2023-03-23T18:17:34;2.42;;;1.00;;
47930;SDS011;33697;51.520;9.950;2023-03-23T18:20:03;3.67;;;1.33;;
47930;SDS011;33697;51.520;9.950;2023-03-23T18:22:33;1.20;;;0.60;;
47930;SDS011;33697;51.520;9.950;2023-03-23T18:25:02;1.35;;;0.80;;
47930;SDS011;33697;51.520;9.950;2023-03-23T18:27:30;2.45;;;0.50;;
47930;SDS011;33697;51.520;9.950;2023-03-23T18:30:00;0.98;;;0.73;;
47930;SDS011;33697;51.520;9.950;2023-03-23T18:32:28;3.35;;;0.73;;
47930;SDS011;33697;51.520;9.950;2023-03-23T18:34:58;0.65;;;0.32;;
47930;SDS011;33697;51.520;9.950;2023-03-23T18:37:28;3.08;;;1.08;;
47930;SDS011;33697;51.520;9.950;2023-03-23T18:40:34;1.88;;;0.82;;
47930;SDS011;33697;51.520;9.950;2023-03-23T18:43:00;1.60;;;0.60;;
47930;SDS011;33697;51.520;9.950;2023-03-23T18:45:33;2.67;;;0.50;;
47930;SDS011;33697;51.520;9.950;2023-03-23T18:48:05;1.52;;;0.50;;
47930;SDS011;33697;51.520;9.950;2023-03-23T18:50:35;2.53;;;0.50;;
47930;SDS011;33697;51.520;9.950;2023-03-23T18:53:06;2.25;;;0.68;;
47930;SDS011;33697;51.520;9.950;2023-03-23T18:55:35;1.67;;;0.80;;
47930;SDS011;33697;51.520;9.950;2023-03-23T19:01:31;3.08;;;1.33;;
47930;SDS011;33697;51.520;9.950;2023-03-23T19:03:58;1.75;;;0.70;;
47930;SDS011;33697;51.520;9.950;2023-03-23T19:06:45;2.80;;;0.95;;
47930;SDS011;33697;51.520;9.950;2023-03-23T19:09:11;1.73;;;0.80;;
47930;SDS011;33697;51.520;9.950;2023-03-23T19:17:58;1.92;;;0.90;;
47930;SDS011;33697;51.520;9.950;2023-03-23T19:20:43;1.25;;;0.60;;
47930;SDS011;33697;51.520;9.950;2023-03-23T19:23:27;1.30;;;1.08;;
47930;SDS011;33697;51.520;9.950;2023-03-23T19:25:53;1.35;;;0.70;;
47930;SDS011;33697;51.520;9.950;2023-03-23T19:28:30;3.28;;;1.27;;
47930;SDS011;33697;51.520;9.950;2023-03-23T19:31:18;3.72;;;0.85;;
47930;SDS011;33697;51.520;9.950;2023-03-23T19:34:04;6.47;;;1.00;;
47930;SDS011;33697;51.520;9.950;2023-03-23T19:36:32;2.88;;;0.70;;
47930;SDS011;33697;51.520;9.950;2023-03-23T19:39:03;3.00;;;1.10;;
47930;SDS011;33697;51.520;9.950;2023-03-23T19:41:37;4.15;;;0.65;;
47930;SDS011;33697;51.520;9.950;2023-03-23T19:44:51;2.10;;;0.70;;
47930;SDS011;33697;51.520;9.950;2023-03-23T19:48:06;4.10;;;0.70;;
47930;SDS011;33697;51.520;9.950;2023-03-23T19:50:53;2.25;;;0.77;;
47930;SDS011;33697;51.520;9.950;2023-03-23T19:53:43;5.32;;;0.80;;
47930;SDS011;33697;51.520;9.950;2023-03-23T19:56:14;1.35;;;0.75;;
47930;SDS011;33697;51.520;9.950;2023-03-23T19:58:41;3.15;;;1.88;;
47930;SDS011;33697;51.520;9.950;2023-03-23T20:01:21;2.95;;;1.08;;
47930;SDS011;33697;51.520;9.950;2023-03-23T20:03:48;3.67;;;1.02;;
47930;SDS011;33697;51.520;9.950;2023-03-23T20:06:14;1.95;;;0.98;;
47930;SDS011;33697;51.520;9.950;2023-03-23T20:08:42;2.53;;;0.90;;
47930;SDS011;33697;51.520;9.950;2023-03-23T20:11:18;3.05;;;0.98;;
47930;SDS011;33697;51.520;9.950;2023-03-23T20:14:29;1.92;;;0.85;;
47930;SDS011;33697;51.520;9.950;2023-03-23T20:17:13;5.45;;;1.20;;
47930;SDS011;33697;51.520;9.950;2023-03-23T20:19:48;5.63;;;2.75;;
47930;SDS011;33697;51.520;9.950;2023-03-23T20:22:43;10.65;;;3.75;;
47930;SDS011;33697;51.520;9.950;2023-03-23T20:25:23;11.57;;;4.10;;
47930;SDS011;33697;51.520;9.950;2023-03-23T20:27:52;5.88;;;3.35;;
47930;SDS011;33697;51.520;9.950;2023-03-23T20:32:46;4.72;;;2.63;;
47930;SDS011;33697;51.520;9.950;2023-03-23T20:35:13;5.45;;;1.27;;
47930;SDS011;33697;51.520;9.950;2023-03-23T20:37:42;2.00;;;1.40;;
47930;SDS011;33697;51.520;9.950;2023-03-23T20:40:15;3.85;;;1.70;;
47930;SDS011;33697;51.520;9.950;2023-03-23T20:42:54;2.95;;;1.08;;
47930;SDS011;33697;51.520;9.950;2023-03-23T20:45:25;2.30;;;0.93;;
47930;SDS011;33697;51.520;9.950;2023-03-23T20:47:55;2.10;;;1.02;;
47930;SDS011;33697;51.520;9.950;2023-03-23T20:50:27;5.72;;;1.40;;
47930;SDS011;33697;51.520;9.950;2023-03-23T20:53:30;1.60;;;1.10;;
47930;SDS011;33697;51.520;9.950;2023-03-23T20:55:59;8.05;;;1.48;;
47930;SDS011;33697;51.520;9.950;2023-03-23T20:58:27;5.43;;;1.55;;
47930;SDS011;33697;51.520;9.950;2023-03-23T21:00:57;2.55;;;0.90;;
47930;SDS011;33697;51.520;9.950;2023-03-23T21:03:37;2.25;;;1.25;;
47930;SDS011;33697;51.520;9.950;2023-03-23T21:06:05;4.22;;;1.63;;
47930;SDS011;33697;51.520;9.950;2023-03-23T21:08:35;2.23;;;1.30;;
47930;SDS011;33697;51.520;9.950;2023-03-23T21:11:07;3.13;;;1.60;;
47930;SDS011;33697;51.520;9.950;2023-03-23T21:13:36;3.92;;;1.50;;
47930;SDS011;33697;51.520;9.950;2023-03-23T21:16:17;2.38;;;1.30;;
47930;SDS011;33697;51.520;9.950;2023-03-23T21:18:44;3.60;;;1.13;;
47930;SDS011;33697;51.520;9.950;2023-03-23T21:21:20;3.63;;;2.17;;
47930;SDS011;33697;51.520;9.950;2023-03-23T21:23:46;6.53;;;1.67;;
47930;SDS011;33697;51.520;9.950;2023-03-23T21:26:18;2.45;;;1.05;;
47930;SDS011;33697;51.520;9.950;2023-03-23T21:28:45;3.95;;;2.80;;
47930;SDS011;33697;51.520;9.950;2023-03-23T21:31:16;2.08;;;1.30;;
47930;SDS011;33697;51.520;9.950;2023-03-23T21:33:43;6.53;;;1.85;;
47930;SDS011;33697;51.520;9.950;2023-03-23T21:36:15;5.00;;;1.00;;
47930;SDS011;33697;51.520;9.950;2023-03-23T21:38:41;1.45;;;1.23;;
47930;SDS011;33697;51.520;9.950;2023-03-23T21:41:08;1.58;;;1.48;;
47930;SDS011;33697;51.520;9.950;2023-03-23T21:43:35;5.90;;;1.92;;
47930;SDS011;33697;51.520;9.950;2023-03-23T21:46:10;3.58;;;1.05;;
47930;SDS011;33697;51.520;9.950;2023-03-23T21:48:53;3.75;;;2.05;;
47930;SDS011;33697;51.520;9.950;2023-03-23T21:51:22;6.15;;;1.42;;
47930;SDS011;33697;51.520;9.950;2023-03-23T21:53:49;4.90;;;0.98;;
47930;SDS011;33697;51.520;9.950;2023-03-23T21:56:15;2.92;;;1.33;;
47930;SDS011;33697;51.520;9.950;2023-03-23T21:58:53;2.22;;;1.10;;
47930;SDS011;33697;51.520;9.950;2023-03-23T22:01:34;5.45;;;1.33;;
47930;SDS011;33697;51.520;9.950;2023-03-23T22:04:05;2.00;;;1.10;;
47930;SDS011;33697;51.520;9.950;2023-03-23T22:06:53;4.65;;;1.63;;
47930;SDS011;33697;51.520;9.950;2023-03-23T22:09:19;3.58;;;1.80;;
47930;SDS011;33697;51.520;9.950;2023-03-23T22:11:46;3.13;;;1.20;;
47930;SDS011;33697;51.520;9.950;2023-03-23T22:14:12;2.65;;;0.90;;
47930;SDS011;33697;51.520;9.950;2023-03-23T22:16:38;3.25;;;1.45;;
47930;SDS011;33697;51.520;9.950;2023-03-23T22:19:08;2.70;;;1.15;;
47930;SDS011;33697;51.520;9.950;2023-03-23T22:21:35;5.07;;;1.02;;
47930;SDS011;33697;51.520;9.950;2023-03-23T22:24:01;2.88;;;1.23;;
47930;SDS011;33697;51.520;9.950;2023-03-23T22:26:28;2.58;;;1.60;;
47930;SDS011;33697;51.520;9.950;2023-03-23T22:29:01;9.63;;;2.00;;
47930;SDS011;33697;51.520;9.950;2023-03-23T22:31:31;4.68;;;1.40;;
47930;SDS011;33697;51.520;9.950;2023-03-23T22:33:59;6.40;;;1.58;;
47930;SDS011;33697;51.520;9.950;2023-03-23T22:36:27;4.78;;;1.30;;
47930;SDS011;33697;51.520;9.950;2023-03-23T22:38:54;4.22;;;1.80;;
47930;SDS011;33697;51.520;9.950;2023-03-23T22:41:22;3.03;;;1.60;;
47930;SDS011;33697;51.520;9.950;2023-03-23T22:43:50;5.82;;;1.42;;
47930;SDS011;33697;51.520;9.950;2023-03-23T22:46:17;2.70;;;1.60;;
47930;SDS011;33697;51.520;9.950;2023-03-23T22:48:44;3.22;;;1.27;;
47930;SDS011;33697;51.520;9.950;2023-03-23T22:51:13;2.83;;;1.75;;